createdAt,value
2019-04-07T00:00:28.471Z,38.84
2019-04-07T00:01:29.045Z,39.64
2019-04-07T00:02:28.448Z,38.94
2019-04-07T00:03:28.828Z,39.04
2019-04-07T00:04:28.450Z,39.64
2019-04-07T00:05:28.418Z,38.94
2019-04-07T00:06:28.403Z,38.94
2019-04-07T00:07:28.507Z,39.43
2019-04-07T00:08:28.381Z,39.43
2019-04-07T00:09:28.680Z,39.24
2019-04-07T00:10:28.769Z,39.43
2019-04-07T00:11:28.426Z,39.04
2019-04-07T00:12:29.275Z,39.04
2019-04-07T00:13:28.326Z,38.94
2019-04-07T00:14:28.336Z,39.64
2019-04-07T00:15:28.306Z,39.43
2019-04-07T00:16:28.292Z,39.34
2019-04-07T00:17:28.577Z,39.34
2019-04-07T00:18:28.280Z,39.34
2019-04-07T00:19:28.378Z,39.34
2019-04-07T00:20:28.248Z,39.24
2019-04-07T00:21:28.237Z,38.94
2019-04-07T00:22:28.227Z,39.43
2019-04-07T00:23:28.492Z,39.24
2019-04-07T00:24:28.228Z,39.24
2019-04-07T00:25:28.700Z,39.24
2019-04-07T00:26:28.195Z,39.04
2019-04-07T00:27:28.175Z,39.04
2019-04-07T00:28:28.165Z,39.04
2019-04-07T00:29:28.813Z,38.84
2019-04-07T00:30:28.157Z,38.84
2019-04-07T00:31:28.125Z,39.04
2019-04-07T00:32:28.428Z,38.84
2019-04-07T00:33:28.398Z,39.14
2019-04-07T00:34:28.093Z,38.94
2019-04-07T00:35:31.990Z,38.94
2019-04-07T00:36:29.068Z,39.34
2019-04-07T00:37:28.328Z,39.14
2019-04-07T00:38:28.369Z,39.43
2019-04-07T00:39:28.065Z,39.43
2019-04-07T00:40:28.378Z,39.14
2019-04-07T00:41:28.013Z,39.43
2019-04-07T00:42:28.005Z,39.34
2019-04-07T00:43:29.045Z,39.14
2019-04-07T00:44:27.982Z,39.43
2019-04-07T00:45:27.989Z,39.14
2019-04-07T00:46:27.985Z,38.74
2019-04-07T00:47:28.549Z,39.34
2019-04-07T00:48:28.634Z,39.04
2019-04-07T00:49:28.135Z,39.04
2019-04-07T00:50:28.387Z,39.04
2019-04-07T00:51:27.907Z,38.94
2019-04-07T00:52:28.367Z,38.94
2019-04-07T00:53:27.884Z,38.94
2019-04-07T00:54:28.108Z,39.04
2019-04-07T00:55:28.342Z,39.04
2019-04-07T00:56:27.974Z,38.94
2019-04-07T00:57:28.568Z,39.14
2019-04-07T00:58:28.151Z,38.94
2019-04-07T00:59:27.812Z,39.14
2019-04-07T01:00:28.110Z,39.04
2019-04-07T01:01:27.794Z,39.24
2019-04-07T01:02:27.781Z,39.54
2019-04-07T01:03:27.768Z,39.04
2019-04-07T01:04:27.756Z,39.04
2019-04-07T01:05:35.675Z,39.04
2019-04-07T01:06:29.435Z,39.24
2019-04-07T01:07:27.945Z,39.04
2019-04-07T01:08:28.162Z,39.04
2019-04-07T01:09:27.731Z,39.24
2019-04-07T01:10:27.752Z,39.24
2019-04-07T01:11:27.697Z,39.24
2019-04-07T01:12:28.170Z,39.04
2019-04-07T01:13:27.656Z,39.24
2019-04-07T01:14:27.878Z,39.04
2019-04-07T01:15:27.898Z,39.24
2019-04-07T01:16:27.622Z,39.54
2019-04-07T01:17:27.938Z,39.43
2019-04-07T01:18:27.858Z,39.43
2019-04-07T01:19:27.828Z,39.43
2019-04-07T01:20:27.581Z,39.34
2019-04-07T01:21:28.107Z,39.34
2019-04-07T01:22:27.566Z,38.64
2019-04-07T01:23:28.194Z,39.34
2019-04-07T01:24:27.706Z,39.34
2019-04-07T01:25:27.521Z,38.64
2019-04-07T01:26:27.988Z,38.64
2019-04-07T01:27:27.851Z,38.74
2019-04-07T01:28:27.538Z,38.74
2019-04-07T01:29:27.478Z,38.64
2019-04-07T01:30:27.471Z,38.64
2019-04-07T01:31:27.596Z,38.74
2019-04-07T01:32:27.447Z,39.24
2019-04-07T01:33:27.767Z,38.84
2019-04-07T01:34:27.422Z,38.84
2019-04-07T01:35:27.631Z,38.64
2019-04-07T01:36:27.977Z,38.54
2019-04-07T01:37:27.533Z,39.24
2019-04-07T01:38:27.903Z,39.14
2019-04-07T01:39:27.370Z,39.14
2019-04-07T01:40:27.354Z,39.14
2019-04-07T01:41:27.560Z,39.12
2019-04-07T01:42:27.943Z,39.24
2019-04-07T01:43:27.325Z,39.04
2019-04-07T01:44:27.658Z,39.14
2019-04-07T01:45:27.859Z,39.14
2019-04-07T01:46:27.410Z,38.94
2019-04-07T01:47:27.707Z,39.14
2019-04-07T01:48:27.268Z,39.04
2019-04-07T01:49:27.342Z,38.94
2019-04-07T01:50:27.407Z,38.94
2019-04-07T01:51:27.401Z,39.14
2019-04-07T01:52:27.353Z,38.94
2019-04-07T01:53:27.212Z,39.04
2019-04-07T01:54:27.224Z,39.24
2019-04-07T01:55:27.737Z,39.14
2019-04-07T01:56:27.273Z,39.14
2019-04-07T01:57:27.242Z,39.04
2019-04-07T01:58:27.334Z,38.94
2019-04-07T01:59:27.147Z,38.94
2019-04-07T02:00:27.139Z,39.14
2019-04-07T02:01:27.390Z,39.34
2019-04-07T02:02:27.132Z,38.94
2019-04-07T02:03:27.592Z,38.94
2019-04-07T02:04:27.133Z,38.84
2019-04-07T02:05:27.078Z,39.14
2019-04-07T02:06:27.232Z,38.94
2019-04-07T02:07:27.287Z,38.94
2019-04-07T02:08:27.360Z,38.94
2019-04-07T02:09:27.029Z,38.94
2019-04-07T02:10:27.445Z,39.14
2019-04-07T02:11:27.550Z,38.84
2019-04-07T02:12:27.018Z,38.84
2019-04-07T02:13:27.487Z,38.74
2019-04-07T02:14:26.974Z,38.74
2019-04-07T02:15:26.968Z,38.94
2019-04-07T02:16:27.007Z,38.94
2019-04-07T02:17:27.242Z,38.74
2019-04-07T02:18:26.933Z,38.74
2019-04-07T02:19:26.951Z,38.74
2019-04-07T02:20:26.907Z,38.94
2019-04-07T02:21:27.408Z,38.84
2019-04-07T02:22:26.910Z,39.14
2019-04-07T02:23:26.894Z,38.74
2019-04-07T02:24:26.862Z,38.62
2019-04-07T02:25:27.226Z,38.54
2019-04-07T02:26:26.864Z,38.54
2019-04-07T02:27:26.853Z,38.74
2019-04-07T02:28:27.479Z,38.74
2019-04-07T02:29:27.163Z,38.74
2019-04-07T02:30:26.957Z,38.94
2019-04-07T02:31:27.438Z,38.84
2019-04-07T02:32:27.773Z,38.84
2019-04-07T02:33:27.639Z,38.74
2019-04-07T02:34:27.847Z,38.74
2019-04-07T02:35:26.743Z,38.84
2019-04-07T02:36:30.446Z,38.94
2019-04-07T02:37:27.834Z,38.84
2019-04-07T02:38:27.445Z,38.94
2019-04-07T02:39:27.070Z,38.64
2019-04-07T02:40:26.905Z,38.74
2019-04-07T02:41:27.554Z,38.74
2019-04-07T02:42:26.763Z,38.64
2019-04-07T02:43:27.427Z,38.84
2019-04-07T02:44:27.321Z,38.54
2019-04-07T02:45:26.971Z,38.64
2019-04-07T02:46:27.081Z,38.44
2019-04-07T02:47:26.627Z,38.54
2019-04-07T02:48:26.627Z,38.54
2019-04-07T02:49:26.587Z,38.84
2019-04-07T02:50:26.575Z,38.84
2019-04-07T02:51:26.559Z,38.44
2019-04-07T02:52:26.842Z,38.74
2019-04-07T02:53:26.766Z,38.74
2019-04-07T02:54:27.405Z,38.74
2019-04-07T02:55:26.750Z,38.84
2019-04-07T02:56:26.917Z,38.74
2019-04-07T02:57:27.092Z,38.84
2019-04-07T02:58:27.163Z,38.74
2019-04-07T02:59:27.268Z,38.54
2019-04-07T03:00:26.461Z,38.74
2019-04-07T03:01:27.690Z,38.74
2019-04-07T03:02:27.177Z,38.44
2019-04-07T03:03:27.235Z,38.74
2019-04-07T03:04:26.421Z,38.74
2019-04-07T03:05:26.736Z,38.34
2019-04-07T03:06:39.332Z,38.44
2019-04-07T03:07:27.379Z,38.24
2019-04-07T03:08:27.008Z,38.34
2019-04-07T03:09:26.368Z,38.34
2019-04-07T03:10:26.346Z,38.84
2019-04-07T03:11:26.337Z,38.24
2019-04-07T03:12:27.501Z,38.24
2019-04-07T03:13:26.333Z,38.34
2019-04-07T03:14:26.366Z,38.24
2019-04-07T03:15:26.958Z,38.34
2019-04-07T03:16:26.278Z,38.34
2019-04-07T03:17:26.268Z,38.32
2019-04-07T03:18:27.011Z,38.34
2019-04-07T03:19:26.298Z,38.34
2019-04-07T03:20:26.925Z,38.14
2019-04-07T03:21:26.748Z,38.24
2019-04-07T03:22:26.222Z,37.84
2019-04-07T03:23:26.492Z,37.84
2019-04-07T03:24:26.666Z,38.14
2019-04-07T03:25:26.193Z,38.34
2019-04-07T03:26:26.178Z,38.34
2019-04-07T03:27:27.019Z,38.24
2019-04-07T03:28:27.150Z,38.24
2019-04-07T03:29:26.928Z,38.14
2019-04-07T03:30:28.372Z,38.34
2019-04-07T03:31:27.358Z,38.24
2019-04-07T03:32:27.849Z,38.34
2019-04-07T03:33:27.755Z,38.14
2019-04-07T03:34:29.058Z,38.24
2019-04-07T03:35:29.053Z,38.24
2019-04-07T03:36:29.560Z,38.14
2019-04-07T03:37:35.087Z,38.14
2019-04-07T03:38:27.389Z,38.24
2019-04-07T03:39:26.551Z,38.24
2019-04-07T03:40:26.778Z,38.54
2019-04-07T03:41:26.001Z,38.04
2019-04-07T03:42:25.986Z,38.44
2019-04-07T03:43:25.974Z,38.24
2019-04-07T03:44:26.585Z,38.24
2019-04-07T03:45:26.468Z,38.14
2019-04-07T03:46:25.942Z,38.34
2019-04-07T03:47:26.101Z,38.24
2019-04-07T03:48:26.417Z,38.34
2019-04-07T03:49:25.929Z,38.24
2019-04-07T03:50:25.896Z,37.74
2019-04-07T03:51:26.538Z,38.14
2019-04-07T03:52:26.810Z,38.14
2019-04-07T03:53:26.413Z,37.74
2019-04-07T03:54:25.873Z,38.24
2019-04-07T03:55:25.842Z,38.14
2019-04-07T03:56:25.828Z,38.24
2019-04-07T03:57:25.822Z,37.64
2019-04-07T03:58:25.976Z,37.94
2019-04-07T03:59:26.782Z,37.94
2019-04-07T04:00:26.563Z,37.94
2019-04-07T04:01:25.978Z,37.94
2019-04-07T04:02:26.443Z,37.94
2019-04-07T04:03:25.806Z,37.94
2019-04-07T04:04:25.764Z,37.94
2019-04-07T04:05:26.080Z,37.84
2019-04-07T04:06:25.999Z,37.84
2019-04-07T04:07:33.088Z,37.84
2019-04-07T04:08:26.693Z,37.94
2019-04-07T04:09:25.686Z,37.84
2019-04-07T04:10:25.694Z,37.84
2019-04-07T04:11:25.660Z,37.94
2019-04-07T04:12:25.767Z,37.84
2019-04-07T04:13:25.638Z,37.84
2019-04-07T04:14:25.627Z,38.04
2019-04-07T04:15:26.345Z,37.84
2019-04-07T04:16:25.771Z,37.84
2019-04-07T04:17:25.603Z,37.94
2019-04-07T04:18:26.396Z,37.64
2019-04-07T04:19:27.026Z,37.74
2019-04-07T04:20:25.580Z,38.04
2019-04-07T04:21:25.959Z,38.34
2019-04-07T04:22:26.049Z,37.64
2019-04-07T04:23:26.130Z,37.84
2019-04-07T04:24:26.616Z,37.84
2019-04-07T04:25:26.300Z,37.84
2019-04-07T04:26:25.533Z,37.94
2019-04-07T04:27:25.483Z,38.14
2019-04-07T04:28:25.469Z,37.74
2019-04-07T04:29:26.463Z,38.24
2019-04-07T04:30:25.727Z,38.14
2019-04-07T04:31:25.557Z,37.64
2019-04-07T04:32:25.622Z,37.74
2019-04-07T04:33:25.518Z,37.64
2019-04-07T04:34:25.411Z,38.24
2019-04-07T04:35:26.547Z,38.14
2019-04-07T04:36:25.412Z,38.04
2019-04-07T04:37:37.582Z,37.74
2019-04-07T04:38:26.360Z,38.24
2019-04-07T04:39:25.350Z,38.04
2019-04-07T04:40:25.358Z,38.14
2019-04-07T04:41:25.331Z,38.04
2019-04-07T04:42:25.319Z,38.34
2019-04-07T04:43:25.551Z,38.04
2019-04-07T04:44:25.693Z,37.94
2019-04-07T04:45:25.299Z,38.04
2019-04-07T04:46:25.898Z,38.24
2019-04-07T04:47:25.286Z,37.94
2019-04-07T04:48:25.922Z,38.14
2019-04-07T04:49:25.255Z,37.54
2019-04-07T04:50:25.848Z,38.04
2019-04-07T04:51:26.028Z,37.94
2019-04-07T04:52:25.202Z,38.14
2019-04-07T04:53:25.662Z,38.04
2019-04-07T04:54:25.814Z,37.94
2019-04-07T04:55:25.514Z,38.24
2019-04-07T04:56:25.950Z,38.14
2019-04-07T04:57:25.237Z,37.94
2019-04-07T04:58:25.873Z,38.24
2019-04-07T04:59:25.775Z,37.84
2019-04-07T05:00:25.112Z,38.04
2019-04-07T05:01:25.295Z,37.94
2019-04-07T05:02:25.779Z,37.84
2019-04-07T05:03:25.089Z,38.04
2019-04-07T05:04:25.076Z,38.04
2019-04-07T05:05:25.580Z,38.24
2019-04-07T05:06:25.375Z,38.24
2019-04-07T05:07:25.033Z,38.04
2019-04-07T05:08:25.823Z,38.04
2019-04-07T05:09:26.977Z,38.24
2019-04-07T05:10:26.576Z,38.24
2019-04-07T05:11:25.008Z,38.04
2019-04-07T05:12:25.212Z,38.04
2019-04-07T05:13:25.070Z,38.14
2019-04-07T05:14:25.780Z,37.94
2019-04-07T05:15:24.942Z,38.04
2019-04-07T05:16:24.954Z,37.94
2019-04-07T05:17:25.254Z,38.04
2019-04-07T05:18:25.586Z,37.94
2019-04-07T05:19:24.914Z,38.34
2019-04-07T05:20:25.215Z,37.94
2019-04-07T05:21:25.065Z,37.94
2019-04-07T05:22:24.867Z,37.84
2019-04-07T05:23:25.154Z,37.94
2019-04-07T05:24:24.841Z,38.04
2019-04-07T05:25:25.010Z,37.94
2019-04-07T05:26:25.478Z,38.14
2019-04-07T05:27:25.111Z,37.94
2019-04-07T05:28:25.448Z,37.94
2019-04-07T05:29:24.839Z,38.34
2019-04-07T05:30:24.774Z,38.04
2019-04-07T05:31:24.783Z,38.34
2019-04-07T05:32:25.205Z,38.34
2019-04-07T05:33:24.741Z,38.34
2019-04-07T05:34:24.734Z,38.34
2019-04-07T05:35:24.932Z,38.34
2019-04-07T05:36:25.237Z,38.34
2019-04-07T05:37:25.331Z,38.34
2019-04-07T05:38:24.684Z,38.04
2019-04-07T05:39:25.010Z,38.24
2019-04-07T05:40:24.663Z,38.04
2019-04-07T05:41:24.674Z,37.94
2019-04-07T05:42:24.679Z,37.94
2019-04-07T05:43:25.207Z,38.24
2019-04-07T05:44:24.618Z,38.04
2019-04-07T05:45:25.313Z,37.94
2019-04-07T05:46:25.046Z,38.34
2019-04-07T05:47:24.605Z,38.34
2019-04-07T05:48:24.931Z,38.04
2019-04-07T05:49:24.562Z,38.34
2019-04-07T05:50:27.452Z,38.34
2019-04-07T05:51:25.045Z,38.04
2019-04-07T05:52:24.554Z,38.24
2019-04-07T05:53:24.517Z,38.34
2019-04-07T05:54:24.958Z,38.24
2019-04-07T05:55:24.659Z,38.34
2019-04-07T05:56:28.109Z,38.34
2019-04-07T05:57:25.056Z,38.34
2019-04-07T05:58:24.464Z,38.14
2019-04-07T05:59:24.450Z,38.04
2019-04-07T06:00:25.090Z,38.04
2019-04-07T06:01:24.658Z,38.34
2019-04-07T06:02:24.497Z,38.24
2019-04-07T06:03:24.415Z,38.04
2019-04-07T06:04:24.914Z,38.24
2019-04-07T06:05:24.514Z,38.04
2019-04-07T06:06:24.372Z,38.24
2019-04-07T06:07:28.826Z,38.14
2019-04-07T06:08:33.792Z,37.94
2019-04-07T06:09:25.340Z,38.04
2019-04-07T06:10:27.733Z,38.14
2019-04-07T06:11:24.819Z,37.94
2019-04-07T06:12:24.326Z,37.94
2019-04-07T06:13:24.758Z,38.04
2019-04-07T06:14:24.445Z,37.84
2019-04-07T06:15:24.728Z,37.94
2019-04-07T06:16:24.670Z,38.04
2019-04-07T06:17:26.329Z,38.04
2019-04-07T06:18:24.920Z,38.14
2019-04-07T06:19:24.951Z,38.04
2019-04-07T06:20:24.755Z,38.04
2019-04-07T06:21:24.338Z,38.04
2019-04-07T06:22:24.784Z,37.94
2019-04-07T06:23:25.801Z,37.84
2019-04-07T06:24:24.389Z,38.04
2019-04-07T06:25:25.048Z,38.04
2019-04-07T06:26:24.150Z,37.84
2019-04-07T06:27:24.161Z,38.04
2019-04-07T06:28:24.755Z,38.04
2019-04-07T06:29:26.171Z,37.84
2019-04-07T06:30:24.103Z,38.04
2019-04-07T06:31:25.833Z,37.84
2019-04-07T06:32:24.431Z,37.84
2019-04-07T06:33:24.070Z,37.84
2019-04-07T06:34:24.907Z,37.94
2019-04-07T06:35:24.050Z,37.84
2019-04-07T06:36:26.303Z,37.84
2019-04-07T06:37:28.817Z,38.14
2019-04-07T06:38:31.208Z,38.24
2019-04-07T06:39:25.010Z,38.14
2019-04-07T06:40:24.214Z,38.34
2019-04-07T06:41:27.331Z,38.04
2019-04-07T06:42:24.967Z,37.94
2019-04-07T06:43:24.743Z,38.24
2019-04-07T06:44:24.277Z,37.94
2019-04-07T06:45:24.491Z,38.04
2019-04-07T06:46:27.641Z,38.24
2019-04-07T06:47:23.914Z,37.74
2019-04-07T06:48:23.924Z,38.14
2019-04-07T06:49:27.549Z,38.04
2019-04-07T06:50:23.879Z,38.14
2019-04-07T06:51:24.035Z,38.14
2019-04-07T06:52:23.932Z,38.04
2019-04-07T06:53:24.550Z,37.94
2019-04-07T06:54:24.538Z,38.34
2019-04-07T06:55:26.649Z,37.94
2019-04-07T06:56:24.300Z,38.14
2019-04-07T06:57:24.453Z,37.94
2019-04-07T06:58:24.322Z,38.14
2019-04-07T06:59:23.778Z,38.14
2019-04-07T07:00:24.912Z,38.14
2019-04-07T07:01:25.803Z,37.94
2019-04-07T07:02:23.973Z,38.14
2019-04-07T07:03:23.808Z,37.94
2019-04-07T07:04:24.392Z,37.94
2019-04-07T07:05:23.711Z,38.14
2019-04-07T07:06:24.126Z,37.94
2019-04-07T07:07:23.688Z,37.94
2019-04-07T07:08:23.701Z,37.94
2019-04-07T07:09:26.438Z,37.94
2019-04-07T07:10:28.864Z,38.04
2019-04-07T07:11:29.298Z,38.04
2019-04-07T07:12:32.296Z,37.94
2019-04-07T07:13:29.813Z,38.04
2019-04-07T07:14:35.224Z,38.24
2019-04-07T07:15:24.649Z,37.94
2019-04-07T07:16:23.952Z,37.94
2019-04-07T07:17:23.576Z,38.22
2019-04-07T07:18:24.097Z,37.94
2019-04-07T07:19:26.242Z,37.92
2019-04-07T07:20:27.607Z,38.04
2019-04-07T07:21:24.727Z,37.92
2019-04-07T07:22:23.613Z,37.94
2019-04-07T07:23:24.084Z,38.24
2019-04-07T07:24:25.398Z,37.92
2019-04-07T07:25:23.486Z,37.94
2019-04-07T07:26:23.511Z,38.24
2019-04-07T07:27:23.902Z,38.24
2019-04-07T07:28:23.678Z,38.14
2019-04-07T07:29:25.281Z,38.24
2019-04-07T07:30:23.436Z,38.12
2019-04-07T07:31:25.415Z,38.22
2019-04-07T07:32:23.409Z,38.04
2019-04-07T07:33:23.509Z,38.04
2019-04-07T07:34:23.413Z,38.02
2019-04-07T07:35:23.518Z,38.02
2019-04-07T07:36:23.974Z,38.04
2019-04-07T07:37:25.401Z,38.24
2019-04-07T07:38:23.352Z,38.22
2019-04-07T07:39:23.356Z,38.02
2019-04-07T07:40:23.317Z,38.04
2019-04-07T07:41:24.284Z,38.02
2019-04-07T07:42:24.446Z,38.04
2019-04-07T07:43:24.016Z,38.42
2019-04-07T07:44:23.542Z,38.02
2019-04-07T07:45:23.944Z,38.12
2019-04-07T07:46:23.821Z,38.02
2019-04-07T07:47:23.242Z,37.82
2019-04-07T07:48:26.196Z,38.04
2019-04-07T07:49:23.238Z,38.14
2019-04-07T07:50:23.331Z,38.44
2019-04-07T07:51:23.627Z,38.12
2019-04-07T07:52:23.323Z,37.82
2019-04-07T07:53:26.952Z,38.02
2019-04-07T07:54:27.754Z,37.94
2019-04-07T07:55:23.149Z,38.12
2019-04-07T07:56:23.390Z,38.02
2019-04-07T07:57:24.035Z,38.04
2019-04-07T07:58:23.602Z,38.02
2019-04-07T07:59:23.125Z,37.82
2019-04-07T08:00:23.096Z,37.94
2019-04-07T08:01:23.528Z,38.02
2019-04-07T08:02:23.718Z,38.02
2019-04-07T08:03:23.091Z,38.02
2019-04-07T08:04:26.482Z,37.82
2019-04-07T08:05:23.767Z,38.32
2019-04-07T08:06:23.030Z,38.04
2019-04-07T08:07:23.639Z,38.34
2019-04-07T08:08:23.443Z,38.02
2019-04-07T08:09:25.182Z,38.04
2019-04-07T08:10:25.084Z,38.02
2019-04-07T08:11:22.973Z,38.04
2019-04-07T08:12:22.967Z,38.04
2019-04-07T08:13:23.542Z,38.04
2019-04-07T08:14:22.939Z,37.92
2019-04-07T08:15:26.288Z,38.04
2019-04-07T08:16:24.032Z,38.02
2019-04-07T08:17:23.821Z,38.14
2019-04-07T08:18:22.947Z,37.72
2019-04-07T08:19:27.866Z,38.04
2019-04-07T08:20:24.234Z,37.82
2019-04-07T08:21:23.534Z,37.74
2019-04-07T08:22:30.631Z,38.12
2019-04-07T08:23:23.834Z,38.04
2019-04-07T08:24:22.931Z,38.12
2019-04-07T08:25:24.731Z,38.02
2019-04-07T08:26:25.095Z,37.84
2019-04-07T08:27:22.790Z,38.12
2019-04-07T08:28:22.779Z,38.04
2019-04-07T08:29:22.908Z,38.02
2019-04-07T08:30:22.966Z,37.82
2019-04-07T08:31:22.964Z,38.02
2019-04-07T08:32:25.940Z,37.72
2019-04-07T08:33:23.770Z,37.92
2019-04-07T08:34:23.197Z,37.92
2019-04-07T08:35:23.283Z,37.94
2019-04-07T08:36:22.763Z,37.92
2019-04-07T08:37:23.335Z,37.72
2019-04-07T08:38:25.878Z,37.92
2019-04-07T08:39:26.865Z,37.62
2019-04-07T08:40:24.230Z,37.82
2019-04-07T08:41:23.403Z,37.72
2019-04-07T08:42:22.695Z,37.72
2019-04-07T08:43:23.576Z,37.92
2019-04-07T08:44:25.468Z,37.92
2019-04-07T08:45:23.099Z,38.32
2019-04-07T08:46:22.581Z,37.72
2019-04-07T08:47:23.362Z,37.92
2019-04-07T08:48:22.555Z,37.92
2019-04-07T08:49:24.020Z,37.62
2019-04-07T08:50:22.806Z,38.02
2019-04-07T08:51:22.522Z,38.02
2019-04-07T08:52:22.518Z,38.22
2019-04-07T08:53:22.898Z,38.02
2019-04-07T08:54:23.127Z,38.24
2019-04-07T08:55:22.588Z,37.72
2019-04-07T08:56:25.747Z,38.22
2019-04-07T08:57:22.609Z,38.22
2019-04-07T08:58:25.716Z,37.62
2019-04-07T08:59:23.433Z,38.32
2019-04-07T09:00:22.425Z,38.22
2019-04-07T09:01:22.433Z,38.22
2019-04-07T09:02:25.474Z,37.72
2019-04-07T09:03:23.393Z,38.02
2019-04-07T09:04:22.375Z,38.22
2019-04-07T09:05:26.860Z,38.22
2019-04-07T09:06:27.261Z,38.22
2019-04-07T09:07:24.621Z,38.24
2019-04-07T09:08:22.730Z,38.24
2019-04-07T09:09:32.564Z,37.72
2019-04-07T09:10:23.308Z,37.74
2019-04-07T09:11:23.579Z,38.12
2019-04-07T09:12:26.367Z,38.02
2019-04-07T09:13:24.027Z,37.92
2019-04-07T09:14:22.334Z,37.72
2019-04-07T09:15:22.460Z,37.82
2019-04-07T09:16:22.507Z,37.62
2019-04-07T09:17:31.551Z,37.92
2019-04-07T09:18:23.326Z,37.23
2019-04-07T09:19:22.510Z,37.12
2019-04-07T09:20:22.196Z,38.02
2019-04-07T09:21:34.210Z,37.52
2019-04-07T09:22:23.302Z,37.42
2019-04-07T09:23:25.150Z,37.52
2019-04-07T09:24:22.372Z,38.02
2019-04-07T09:25:22.641Z,37.62
2019-04-07T09:26:22.913Z,37.62
2019-04-07T09:27:23.485Z,37.62
2019-04-07T09:28:23.967Z,37.62
2019-04-07T09:29:24.986Z,37.82
2019-04-07T09:30:22.308Z,37.92
2019-04-07T09:31:22.115Z,37.82
2019-04-07T09:32:22.569Z,38.02
2019-04-07T09:33:22.713Z,37.72
2019-04-07T09:34:23.001Z,37.12
2019-04-07T09:35:24.086Z,37.12
2019-04-07T09:36:22.343Z,37.72
2019-04-07T09:37:24.330Z,37.23
2019-04-07T09:38:24.897Z,37.92
2019-04-07T09:39:22.469Z,37.62
2019-04-07T09:40:21.979Z,37.72
2019-04-07T09:41:26.166Z,37.52
2019-04-07T09:42:25.700Z,37.82
2019-04-07T09:43:22.481Z,38.02
2019-04-07T09:44:22.073Z,37.12
2019-04-07T09:45:21.922Z,37.52
2019-04-07T09:46:21.917Z,37.72
2019-04-07T09:47:22.602Z,37.23
2019-04-07T09:48:22.957Z,37.52
2019-04-07T09:49:23.554Z,37.92
2019-04-07T09:50:21.884Z,38.02
2019-04-07T09:51:21.893Z,37.23
2019-04-07T09:52:22.127Z,38.02
2019-04-07T09:53:21.830Z,37.52
2019-04-07T09:54:23.282Z,37.23
2019-04-07T09:55:24.322Z,37.42
2019-04-07T09:56:21.798Z,37.72
2019-04-07T09:57:21.805Z,37.92
2019-04-07T09:58:21.773Z,37.23
2019-04-07T09:59:21.763Z,37.23
2019-04-07T10:00:23.939Z,37.92
2019-04-07T10:01:22.257Z,37.32
2019-04-07T10:02:21.750Z,37.12
2019-04-07T10:03:21.716Z,37.92
2019-04-07T10:04:21.710Z,38.02
2019-04-07T10:05:21.694Z,37.23
2019-04-07T10:06:21.683Z,37.23
2019-04-07T10:07:21.695Z,37.12
2019-04-07T10:08:21.665Z,37.23
2019-04-07T10:09:21.787Z,38.02
2019-04-07T10:10:21.643Z,37.23
2019-04-07T10:11:22.024Z,37.12
2019-04-07T10:12:22.021Z,37.23
2019-04-07T10:13:21.631Z,37.12
2019-04-07T10:14:21.868Z,37.23
2019-04-07T10:15:22.340Z,37.12
2019-04-07T10:16:22.206Z,37.12
2019-04-07T10:17:22.246Z,37.12
2019-04-07T10:18:21.570Z,37.23
2019-04-07T10:19:21.565Z,37.12
2019-04-07T10:20:23.135Z,37.23
2019-04-07T10:21:21.766Z,37.42
2019-04-07T10:22:21.504Z,37.23
2019-04-07T10:23:21.974Z,37.82
2019-04-07T10:24:21.486Z,37.82
2019-04-07T10:25:22.379Z,37.23
2019-04-07T10:26:21.460Z,37.52
2019-04-07T10:27:22.317Z,37.62
2019-04-07T10:28:22.294Z,37.72
2019-04-07T10:29:21.913Z,37.92
2019-04-07T10:30:21.415Z,37.72
2019-04-07T10:31:21.405Z,37.82
2019-04-07T10:32:23.672Z,37.92
2019-04-07T10:33:21.534Z,37.94
2019-04-07T10:34:21.499Z,37.94
2019-04-07T10:35:21.427Z,37.72
2019-04-07T10:36:21.634Z,37.72
2019-04-07T10:37:21.931Z,37.92
2019-04-07T10:38:21.441Z,38.12
2019-04-07T10:39:21.315Z,37.82
2019-04-07T10:40:22.521Z,38.22
2019-04-07T10:41:21.749Z,38.12
2019-04-07T10:42:21.898Z,37.92
2019-04-07T10:43:21.293Z,38.22
2019-04-07T10:44:21.382Z,38.32
2019-04-07T10:45:21.785Z,38.14
2019-04-07T10:46:21.559Z,37.92
2019-04-07T10:47:21.261Z,38.12
2019-04-07T10:48:21.239Z,38.04
2019-04-07T10:49:21.362Z,38.04
2019-04-07T10:50:21.192Z,37.94
2019-04-07T10:51:21.191Z,38.04
2019-04-07T10:52:21.451Z,38.34
2019-04-07T10:53:21.159Z,37.94
2019-04-07T10:54:21.309Z,38.24
2019-04-07T10:55:21.136Z,38.24
2019-04-07T10:56:21.251Z,37.94
2019-04-07T10:57:21.120Z,37.94
2019-04-07T10:58:21.923Z,38.24
2019-04-07T10:59:21.114Z,37.64
2019-04-07T11:00:21.358Z,37.74
2019-04-07T11:01:21.088Z,37.84
2019-04-07T11:02:21.059Z,37.86
2019-04-07T11:03:21.359Z,38.66
2019-04-07T11:04:21.803Z,37.76
2019-04-07T11:05:21.742Z,38.16
2019-04-07T11:06:21.611Z,38.26
2019-04-07T11:07:21.644Z,38.16
2019-04-07T11:08:20.991Z,38.36
2019-04-07T11:09:21.160Z,38.56
2019-04-07T11:10:32.893Z,38.76
2019-04-07T11:11:22.376Z,38.76
2019-04-07T11:12:21.159Z,38.85
2019-04-07T11:13:20.984Z,38.85
2019-04-07T11:14:21.723Z,38.56
2019-04-07T11:15:20.917Z,39.06
2019-04-07T11:16:20.905Z,38.96
2019-04-07T11:17:21.570Z,39.15
2019-04-07T11:18:20.883Z,38.96
2019-04-07T11:19:20.890Z,39.36
2019-04-07T11:20:21.480Z,38.85
2019-04-07T11:21:21.483Z,38.96
2019-04-07T11:22:20.837Z,39.26
2019-04-07T11:23:20.825Z,39.26
2019-04-07T11:24:20.835Z,39.15
2019-04-07T11:25:20.806Z,39.18
2019-04-07T11:26:20.902Z,39.28
2019-04-07T11:27:21.136Z,38.76
2019-04-07T11:28:20.881Z,38.87
2019-04-07T11:29:20.779Z,38.78
2019-04-07T11:30:21.353Z,39.07
2019-04-07T11:31:21.237Z,38.98
2019-04-07T11:32:20.724Z,38.98
2019-04-07T11:33:20.923Z,39.07
2019-04-07T11:34:20.723Z,39.07
2019-04-07T11:35:21.128Z,38.98
2019-04-07T11:36:22.558Z,38.87
2019-04-07T11:37:20.669Z,39.18
2019-04-07T11:38:21.266Z,39.28
2019-04-07T11:39:20.667Z,39.07
2019-04-07T11:40:21.055Z,39.28
2019-04-07T11:41:23.477Z,39.37
2019-04-07T11:42:20.619Z,38.98
2019-04-07T11:43:20.822Z,39.37
2019-04-07T11:44:20.612Z,39.50
2019-04-07T11:45:20.801Z,39.59
2019-04-07T11:46:20.567Z,39.39
2019-04-07T11:47:20.763Z,38.98
2019-04-07T11:48:20.983Z,39.39
2019-04-07T11:49:21.374Z,39.00
2019-04-07T11:50:21.256Z,38.98
2019-04-07T11:51:20.631Z,39.29
2019-04-07T11:52:20.508Z,39.00
2019-04-07T11:53:21.216Z,38.89
2019-04-07T11:54:20.486Z,39.00
2019-04-07T11:55:20.492Z,39.20
2019-04-07T11:56:20.699Z,39.20
2019-04-07T11:57:20.535Z,39.00
2019-04-07T11:58:28.981Z,39.00
2019-04-07T11:59:21.953Z,39.00
2019-04-07T12:00:20.648Z,39.20
2019-04-07T12:01:20.400Z,39.00
2019-04-07T12:02:21.617Z,39.00
2019-04-07T12:03:24.807Z,39.00
2019-04-07T12:04:21.714Z,38.91
2019-04-07T12:05:21.121Z,39.79
2019-04-07T12:06:23.412Z,39.51
2019-04-07T12:07:21.909Z,39.69
2019-04-07T12:08:20.393Z,39.72
2019-04-07T12:09:20.682Z,39.61
2019-04-07T12:10:20.375Z,39.72
2019-04-07T12:11:20.289Z,40.01
2019-04-07T12:12:20.284Z,40.11
2019-04-07T12:13:20.952Z,40.31
2019-04-07T12:14:20.370Z,39.91
2019-04-07T12:15:24.188Z,40.01
2019-04-07T12:16:21.993Z,40.01
2019-04-07T12:17:21.008Z,40.22
2019-04-07T12:18:20.408Z,39.51
2019-04-07T12:19:22.794Z,40.11
2019-04-07T12:20:20.748Z,40.31
2019-04-07T12:21:23.221Z,40.03
2019-04-07T12:22:21.680Z,40.31
2019-04-07T12:23:23.319Z,39.91
2019-04-07T12:24:24.643Z,39.93
2019-04-07T12:25:21.058Z,39.63
2019-04-07T12:26:20.469Z,39.93
2019-04-07T12:27:21.613Z,39.91
2019-04-07T12:28:20.562Z,39.93
2019-04-07T12:29:20.086Z,40.03
2019-04-07T12:30:22.397Z,39.93
2019-04-07T12:31:20.088Z,40.03
2019-04-07T12:32:20.270Z,39.83
2019-04-07T12:33:21.013Z,39.93
2019-04-07T12:34:20.031Z,40.03
2019-04-07T12:35:20.321Z,39.73
2019-04-07T12:36:20.544Z,40.03
2019-04-07T12:37:20.632Z,39.83
2019-04-07T12:38:20.913Z,39.93
2019-04-07T12:39:20.263Z,39.73
2019-04-07T12:40:22.218Z,39.73
2019-04-07T12:41:22.202Z,39.73
2019-04-07T12:42:20.275Z,39.53
2019-04-07T12:43:19.936Z,40.05
2019-04-07T12:44:20.138Z,39.53
2019-04-07T12:45:19.908Z,39.53
2019-04-07T12:46:21.010Z,39.75
2019-04-07T12:47:19.885Z,39.95
2019-04-07T12:48:19.887Z,40.25
2019-04-07T12:49:20.670Z,40.35
2019-04-07T12:50:21.599Z,40.35
2019-04-07T12:51:21.353Z,39.65
2019-04-07T12:52:20.599Z,40.45